Time;durP1;ratioP1;P1;durP2;ratioP2;P2;SDS_P1;SDS_P2;PMS_P1;PMS_P2;Temp;Humidity;BMP_temperature;BMP_pressure;BME280_temperature;BME280_humidity;BME280_pressure;Samples;Min_cycle;Max_cycle;Signal;HPM_P1;HPM_P2
2023/03/02 00:00:28;;;;;;;;;;;;;;;;;;5018589;28;20481;-55
2023/03/02 00:02:54;;;;;;;;;;;;;;;;;;5031031;28;19975;-56
2023/03/02 00:05:20;;;;;;;;;;;;;;;;;;5012188;28;20413;-56
2023/03/02 00:07:45;;;;;;;;;;;;;;;;;;5012268;28;20025;-57
2023/03/02 00:10:11;;;;;;;;;;;;;;;;;;5011903;28;20609;-57
2023/03/02 00:12:37;;;;;;;;;;;;;;;;;;5012143;28;19914;-57
2023/03/02 00:15:03;;;;;;;;;;;;;;;;;;5012012;28;20325;-56
2023/03/02 00:17:29;;;;;;;;;;;;;;;;;;5018000;28;20401;-57
2023/03/02 00:20:10;;;;;;;;;;;;;;;;;;5012209;28;20039;-56
2023/03/02 00:22:36;;;;;;;;;;;;;;;;;;5011801;28;19921;-57
2023/03/02 00:25:01;;;;;;;;;;;;;;;;;;5030305;28;20554;-56
2023/03/02 00:27:28;;;;;;;;;;;;;;;;;;5030435;28;20006;-57
2023/03/02 00:29:54;;;;;;;;;;;;;;;;;;5030696;28;19909;-57
2023/03/02 00:32:20;;;;;;;;;;;;;;;;;;5030393;28;19913;-57
2023/03/02 00:34:46;;;;;;;;;;;;;;;;;;5030221;28;19909;-58
2023/03/02 00:37:12;;;;;;;;;;;;;;;;;;5012741;28;20007;-58
2023/03/02 00:39:38;;;;;;;;;;;;;;;;;;5028995;28;20318;-57
2023/03/02 00:42:04;;;;;;;;;;;;;;;;;;5025552;28;19928;-57
2023/03/02 00:44:30;;;;;;;;;;;;;;;;;;5011744;28;19918;-54
2023/03/02 00:46:55;;;;;;;;;;;;;;;;;;5011832;28;20016;-57
2023/03/02 00:49:21;;;;;;;;;;;;;;;;;;5021205;28;20305;-58
2023/03/02 00:51:47;;;;;;;;;;;;;;;;;;5030031;28;20572;-57
2023/03/02 00:54:13;;;;;;;;;;;;;;;;;;5030151;28;19921;-57
2023/03/02 00:56:39;;;;;;;;;;;;;;;;;;5030534;28;20718;-57
2023/03/02 00:59:05;;;;;;;;;;;;;;;;;;5030143;28;19917;-56
2023/03/02 01:01:31;;;;;;;;;;;;;;;;;;5030189;28;19913;-57
2023/03/02 01:03:57;;;;;;;;;;;;;;;;;;5030154;28;20293;-57
2023/03/02 01:06:23;;;;;;;;;;;;;;;;;;5030563;28;19909;-57
2023/03/02 01:08:48;;;;;;;;;;;;;;;;;;5029510;28;19917;-57
2023/03/02 01:11:14;;;;;;;;;;;;;;;;;;5029040;28;19913;-57
2023/03/02 01:13:41;;;;;;;;;;;;;;;;;;5016220;28;20036;-56
2023/03/02 01:16:06;;;;;;;;;;;;;;;;;;5010951;28;19914;-58
2023/03/02 01:18:33;;;;;;;;;;;;;;;;;;5017630;28;19920;-57
2023/03/02 01:20:59;;;;;;;;;;;;;;;;;;5029657;28;19913;-54
2023/03/02 01:23:25;;;;;;;;;;;;;;;;;;5029348;28;20609;-57
2023/03/02 01:25:51;;;;;;;;;;;;;;;;;;5029848;28;19979;-57
2023/03/02 01:28:17;;;;;;;;;;;;;;;;;;5029982;28;19913;-56
2023/03/02 01:30:43;;;;;;;;;;;;;;;;;;5029442;28;19909;-57
2023/03/02 01:33:08;;;;;;;;;;;;;;;;;;5029517;28;19961;-57
2023/03/02 01:35:34;;;;;;;;;;;;;;;;;;5025812;28;19914;-58
2023/03/02 01:38:00;;;;;;;;;;;;;;;;;;5011144;28;19913;-57
2023/03/02 01:40:26;;;;;;;;;;;;;;;;;;5010484;28;19917;-57
2023/03/02 01:42:52;;;;;;;;;;;;;;;;;;5010123;28;19976;-58
2023/03/02 01:45:18;;;;;;;;;;;;;;;;;;5010119;28;19909;-57
2023/03/02 01:47:44;;;;;;;;;;;;;;;;;;5014300;28;19909;-57
2023/03/02 01:50:10;;;;;;;;;;;;;;;;;;5022335;28;20055;-58
2023/03/02 01:52:39;;;;;;;;;;;;;;;;;;5028565;28;19920;-57
2023/03/02 01:55:05;;;;;;;;;;;;;;;;;;5019170;28;19910;-58
2023/03/02 01:57:30;;;;;;;;;;;;;;;;;;5010570;28;20305;-57
2023/03/02 01:59:56;;;;;;;;;;;;;;;;;;5009948;28;20372;-57
2023/03/02 02:02:22;;;;;;;;;;;;;;;;;;5009947;28;19929;-57
2023/03/02 02:04:48;;;;;;;;;;;;;;;;;;5011673;28;20445;-57
2023/03/02 02:07:14;;;;;;;;;;;;;;;;;;5008957;28;20004;-57
2023/03/02 02:09:40;;;;;;;;;;;;;;;;;;5010109;28;19918;-56
2023/03/02 02:12:06;;;;;;;;;;;;;;;;;;5011261;28;20293;-57
2023/03/02 02:14:32;;;;;;;;;;;;;;;;;;5017348;28;19986;-57
2023/03/02 02:16:58;;;;;;;;;;;;;;;;;;5028584;28;19945;-58
2023/03/02 02:19:23;;;;;;;;;;;;;;;;;;5015959;28;19914;-57
2023/03/02 02:21:49;;;;;;;;;;;;;;;;;;5028170;28;20015;-56
2023/03/02 02:24:15;;;;;;;;;;;;;;;;;;5028138;28;19935;-57
2023/03/02 02:26:41;;;;;;;;;;;;;;;;;;5009274;28;19972;-58
2023/03/02 02:29:07;;;;;;;;;;;;;;;;;;5009854;28;19913;-57
2023/03/02 02:31:33;;;;;;;;;;;;;;;;;;5010846;28;19920;-58
2023/03/02 02:33:59;;;;;;;;;;;;;;;;;;5009844;28;19913;-58
2023/03/02 02:36:25;;;;;;;;;;;;;;;;;;5016811;28;19952;-57
2023/03/02 02:38:50;;;;;;;;;;;;;;;;;;5028544;28;19910;-57
2023/03/02 02:41:16;;;;;;;;;;;;;;;;;;5016695;28;19949;-57
2023/03/02 02:43:42;;;;;;;;;;;;;;;;;;5009612;28;19917;-57
2023/03/02 02:46:08;;;;;;;;;;;;;;;;;;5009299;28;20294;-57
2023/03/02 02:48:34;;;;;;;;;;;;;;;;;;5013920;28;20008;-57
2023/03/02 02:51:01;;;;;;;;;;;;;;;;;;5017365;28;20733;-56
2023/03/02 02:53:27;;;;;;;;;;;;;;;;;;5009442;28;19909;-57
2023/03/02 02:55:53;;;;;;;;;;;;;;;;;;5025886;28;20300;-56
2023/03/02 02:58:19;;;;;;;;;;;;;;;;;;5024391;28;19909;-56
2023/03/02 03:00:45;;;;;;;;;;;;;;;;;;5025448;28;20036;-58
2023/03/02 03:03:27;;;;;;;;;;;;;;;;;;5028223;28;19928;-57
2023/03/02 03:05:53;;;;;;;;;;;;;;;;;;5028491;28;19942;-57
2023/03/02 03:08:19;;;;;;;;;;;;;;;;;;5028208;28;20404;-57
2023/03/02 03:10:45;;;;;;;;;;;;;;;;;;5011430;28;19967;-57
2023/03/02 03:13:11;;;;;;;;;;;;;;;;;;5009545;28;20416;-57
2023/03/02 03:15:37;;;;;;;;;;;;;;;;;;5009278;28;19913;-57
2023/03/02 03:18:03;;;;;;;;;;;;;;;;;;5011412;28;19910;-57
2023/03/02 03:20:29;;;;;;;;;;;;;;;;;;5012948;28;19917;-57
2023/03/02 03:22:58;;;;;;;;;;;;;;;;;;5012898;28;19917;-56
2023/03/02 03:25:24;;;;;;;;;;;;;;;;;;5013910;28;19960;-58
2023/03/02 03:27:49;;;;;;;;;;;;;;;;;;5015888;28;19963;-57
2023/03/02 03:30:15;;;;;;;;;;;;;;;;;;5012948;28;20396;-57
2023/03/02 03:32:41;;;;;;;;;;;;;;;;;;5012622;28;19952;-58
2023/03/02 03:35:10;;;;;;;;;;;;;;;;;;5021070;28;20293;-58
2023/03/02 03:37:36;;;;;;;;;;;;;;;;;;5012759;28;20295;-57
2023/03/02 03:40:02;;;;;;;;;;;;;;;;;;5013084;28;19913;-57
2023/03/02 03:42:28;;;;;;;;;;;;;;;;;;5012890;28;19928;-57
2023/03/02 03:44:54;;;;;;;;;;;;;;;;;;5019037;28;19909;-58
2023/03/02 03:47:20;;;;;;;;;;;;;;;;;;5026353;28;19917;-57
2023/03/02 03:49:45;;;;;;;;;;;;;;;;;;5031283;28;19913;-57
2023/03/02 03:52:11;;;;;;;;;;;;;;;;;;5031694;28;19962;-56
2023/03/02 03:54:37;;;;;;;;;;;;;;;;;;5024361;28;19920;-57
2023/03/02 03:57:03;;;;;;;;;;;;;;;;;;5012692;28;20009;-57
2023/03/02 03:59:29;;;;;;;;;;;;;;;;;;5031122;28;19920;-57
2023/03/02 04:01:55;;;;;;;;;;;;;;;;;;5011962;28;19917;-57
2023/03/02 04:04:21;;;;;;;;;;;;;;;;;;5013539;28;19909;-57
2023/03/02 04:06:47;;;;;;;;;;;;;;;;;;5012247;28;19909;-57
2023/03/02 04:09:14;;;;;;;;;;;;;;;;;;5012169;28;19910;-58
2023/03/02 04:11:40;;;;;;;;;;;;;;;;;;5012213;28;20396;-57
2023/03/02 04:14:06;;;;;;;;;;;;;;;;;;5015211;28;20109;-57
2023/03/02 04:16:31;;;;;;;;;;;;;;;;;;5018099;28;19910;-57
2023/03/02 04:18:57;;;;;;;;;;;;;;;;;;5011619;28;19913;-58
2023/03/02 04:21:23;;;;;;;;;;;;;;;;;;5011543;28;20378;-57
2023/03/02 04:23:49;;;;;;;;;;;;;;;;;;5017624;28;19921;-57
2023/03/02 04:26:15;;;;;;;;;;;;;;;;;;5030776;28;19972;-57
2023/03/02 04:28:41;;;;;;;;;;;;;;;;;;5030102;28;19910;-57
2023/03/02 04:31:07;;;;;;;;;;;;;;;;;;5030392;28;20255;-57
2023/03/02 04:33:33;;;;;;;;;;;;;;;;;;5030534;28;20404;-57
2023/03/02 04:35:59;;;;;;;;;;;;;;;;;;5021333;28;20008;-57
2023/03/02 04:38:28;;;;;;;;;;;;;;;;;;5011901;28;20831;-57
2023/03/02 04:40:54;;;;;;;;;;;;;;;;;;5011239;28;19975;-58
2023/03/02 04:43:20;;;;;;;;;;;;;;;;;;5013759;28;20376;-57
2023/03/02 04:45:46;;;;;;;;;;;;;;;;;;5029640;28;19913;-58
2023/03/02 04:48:12;;;;;;;;;;;;;;;;;;5030543;28;20646;-57
2023/03/02 04:50:38;;;;;;;;;;;;;;;;;;5030572;28;19992;-58
2023/03/02 04:53:04;;;;;;;;;;;;;;;;;;5030482;28;19909;-57
2023/03/02 04:55:30;;;;;;;;;;;;;;;;;;5029980;28;19920;-56
2023/03/02 04:57:55;;;;;;;;;;;;;;;;;;5029873;28;19917;-56
2023/03/02 05:00:21;;;;;;;;;;;;;;;;;;5029730;28;20007;-56
2023/03/02 05:02:47;;;;;;;;;;;;;;;;;;5016671;28;19928;-56
2023/03/02 05:05:13;;;;;;;;;;;;;;;;;;5011117;28;19996;-57
2023/03/02 05:07:39;;;;;;;;;;;;;;;;;;5016021;28;20285;-57
2023/03/02 05:10:05;;;;;;;;;;;;;;;;;;5029700;28;19909;-57
2023/03/02 05:12:56;;;;;;;;;;;;;;;;;;5024384;28;20664;-56
2023/03/02 05:15:17;;;;;;;;;;;;;;;;;;5018497;28;19983;-58
2023/03/02 05:17:42;;;;;;;;;;;;;;;;;;5029928;28;20382;-57
2023/03/02 05:20:08;;;;;;;;;;;;;;;;;;5029801;28;19913;-57
2023/03/02 05:22:34;;;;;;;;;;;;;;;;;;5029522;28;20401;-55
2023/03/02 05:25:00;;;;;;;;;;;;;;;;;;5029456;28;19913;-57
2023/03/02 05:27:26;;;;;;;;;;;;;;;;;;5029068;28;20103;-56
2023/03/02 05:29:52;;;;;;;;;;;;;;;;;;5029722;28;19913;-57
2023/03/02 05:32:18;;;;;;;;;;;;;;;;;;5029679;28;19932;-57
2023/03/02 05:34:44;;;;;;;;;;;;;;;;;;5029757;28;19982;-56
2023/03/02 05:37:10;;;;;;;;;;;;;;;;;;5017475;28;19919;-57
2023/03/02 05:39:36;;;;;;;;;;;;;;;;;;5029415;28;19913;-52
2023/03/02 05:42:01;;;;;;;;;;;;;;;;;;5028681;28;20281;-56
2023/03/02 05:44:27;;;;;;;;;;;;;;;;;;5029213;28;19913;-56
2023/03/02 05:46:53;;;;;;;;;;;;;;;;;;5029420;28;19913;-57
2023/03/02 05:49:19;;;;;;;;;;;;;;;;;;5018561;28;19941;-57
2023/03/02 05:51:45;;;;;;;;;;;;;;;;;;5011275;28;19914;-56
2023/03/02 05:54:11;;;;;;;;;;;;;;;;;;5009931;28;20406;-58
2023/03/02 05:56:37;;;;;;;;;;;;;;;;;;5014189;28;19924;-57
2023/03/02 05:59:03;;;;;;;;;;;;;;;;;;5029136;28;20075;-57
2023/03/02 06:01:29;;;;;;;;;;;;;;;;;;5028881;28;20011;-58
2023/03/02 06:03:55;;;;;;;;;;;;;;;;;;5019304;28;19939;-57
2023/03/02 06:06:21;;;;;;;;;;;;;;;;;;5015071;28;19979;-57
2023/03/02 06:08:47;;;;;;;;;;;;;;;;;;5011318;28;19918;-57
2023/03/02 06:11:12;;;;;;;;;;;;;;;;;;5018696;28;19929;-58
2023/03/02 06:13:38;;;;;;;;;;;;;;;;;;5028373;28;19909;-56
2023/03/02 06:16:04;;;;;;;;;;;;;;;;;;5026847;28;20013;-57
2023/03/02 06:18:30;;;;;;;;;;;;;;;;;;5009845;28;19913;-57
2023/03/02 06:20:56;;;;;;;;;;;;;;;;;;5011365;28;19918;-57
2023/03/02 06:23:22;;;;;;;;;;;;;;;;;;5014640;28;19964;-57
2023/03/02 06:25:48;;;;;;;;;;;;;;;;;;5009562;28;19914;-57
2023/03/02 06:28:14;;;;;;;;;;;;;;;;;;5009439;28;19929;-57
2023/03/02 06:30:40;;;;;;;;;;;;;;;;;;5012237;28;20003;-58
2023/03/02 06:33:06;;;;;;;;;;;;;;;;;;5009627;28;19914;-57
2023/03/02 06:35:33;;;;;;;;;;;;;;;;;;5022277;28;19913;-57
2023/03/02 06:37:59;;;;;;;;;;;;;;;;;;5009762;28;19929;-57
2023/03/02 06:40:25;;;;;;;;;;;;;;;;;;5012017;28;19928;-58
2023/03/02 06:42:51;;;;;;;;;;;;;;;;;;5009811;28;20297;-57
2023/03/02 06:45:16;;;;;;;;;;;;;;;;;;5009161;28;19924;-57
2023/03/02 06:47:42;;;;;;;;;;;;;;;;;;5009518;28;20459;-57
2023/03/02 06:50:08;;;;;;;;;;;;;;;;;;5009429;28;19909;-57
2023/03/02 06:52:34;;;;;;;;;;;;;;;;;;5011666;28;19910;-56
2023/03/02 06:55:00;;;;;;;;;;;;;;;;;;5013683;28;20369;-58
2023/03/02 06:57:32;;;;;;;;;;;;;;;;;;5013317;28;19920;-57
2023/03/02 06:59:58;;;;;;;;;;;;;;;;;;5019224;28;19916;-58
2023/03/02 07:02:24;;;;;;;;;;;;;;;;;;5023203;28;19936;-57
2023/03/02 07:04:50;;;;;;;;;;;;;;;;;;5013719;28;20332;-57
2023/03/02 07:07:15;;;;;;;;;;;;;;;;;;5029447;28;19914;-58
2023/03/02 07:09:41;;;;;;;;;;;;;;;;;;5015171;28;20306;-57
2023/03/02 07:12:07;;;;;;;;;;;;;;;;;;5014052;28;19909;-57
2023/03/02 07:14:33;;;;;;;;;;;;;;;;;;5013023;28;19932;-57
2023/03/02 07:16:59;;;;;;;;;;;;;;;;;;5013439;28;19914;-57
2023/03/02 07:19:25;;;;;;;;;;;;;;;;;;5013026;28;19920;-58
2023/03/02 07:21:51;;;;;;;;;;;;;;;;;;5027922;28;20012;-58
2023/03/02 07:24:17;;;;;;;;;;;;;;;;;;5018961;28;19918;-57
2023/03/02 07:26:42;;;;;;;;;;;;;;;;;;5023080;28;19971;-57
2023/03/02 07:29:08;;;;;;;;;;;;;;;;;;5027123;28;19909;-58
2023/03/02 07:31:34;;;;;;;;;;;;;;;;;;5031570;28;20442;-57
2023/03/02 07:34:00;;;;;;;;;;;;;;;;;;5031325;28;19913;-57
2023/03/02 07:36:26;;;;;;;;;;;;;;;;;;5018617;28;19917;-57
2023/03/02 07:38:53;;;;;;;;;;;;;;;;;;5012266;28;19952;-56
2023/03/02 07:41:19;;;;;;;;;;;;;;;;;;5012369;28;19910;-57
2023/03/02 07:43:45;;;;;;;;;;;;;;;;;;5014307;28;19918;-57
2023/03/02 07:46:11;;;;;;;;;;;;;;;;;;5012606;28;19913;-57
2023/03/02 07:48:37;;;;;;;;;;;;;;;;;;5031213;28;19936;-57
2023/03/02 07:51:03;;;;;;;;;;;;;;;;;;5031721;28;19916;-57
2023/03/02 07:53:28;;;;;;;;;;;;;;;;;;5030963;28;19917;-57
2023/03/02 07:55:54;;;;;;;;;;;;;;;;;;5012927;28;19910;-57
2023/03/02 07:58:20;;;;;;;;;;;;;;;;;;5020233;28;19952;-58
2023/03/02 08:00:46;;;;;;;;;;;;;;;;;;5012550;28;19913;-57
2023/03/02 08:03:12;;;;;;;;;;;;;;;;;;5011731;28;19968;-57
2023/03/02 08:05:38;;;;;;;;;;;;;;;;;;5012142;28;19910;-57
2023/03/02 08:08:04;;;;;;;;;;;;;;;;;;5028435;28;19920;-56
2023/03/02 08:10:30;;;;;;;;;;;;;;;;;;5031200;28;20008;-58
2023/03/02 08:12:55;;;;;;;;;;;;;;;;;;5031076;28;19909;-58
2023/03/02 08:15:22;;;;;;;;;;;;;;;;;;5030780;28;19913;-57
2023/03/02 08:17:48;;;;;;;;;;;;;;;;;;5029698;28;20332;-58
2023/03/02 08:20:14;;;;;;;;;;;;;;;;;;5020995;28;19913;-57
2023/03/02 08:22:40;;;;;;;;;;;;;;;;;;5030095;28;20590;-57
2023/03/02 08:25:06;;;;;;;;;;;;;;;;;;5030758;28;19963;-57
2023/03/02 08:27:32;;;;;;;;;;;;;;;;;;5030527;28;19921;-56
2023/03/02 08:29:57;;;;;;;;;;;;;;;;;;5030637;28;19913;-57
2023/03/02 08:32:23;;;;;;;;;;;;;;;;;;5022916;28;20472;-56
2023/03/02 08:34:50;;;;;;;;;;;;;;;;;;5026225;28;19913;-57
2023/03/02 08:37:16;;;;;;;;;;;;;;;;;;5028502;28;19936;-56
2023/03/02 08:39:42;;;;;;;;;;;;;;;;;;5028938;28;20292;-57
2023/03/02 08:42:08;;;;;;;;;;;;;;;;;;5010971;28;19921;-58
2023/03/02 08:44:34;;;;;;;;;;;;;;;;;;5024846;28;19917;-56
2023/03/02 08:47:00;;;;;;;;;;;;;;;;;;5016030;28;20060;-62
2023/03/02 08:49:26;;;;;;;;;;;;;;;;;;5010557;28;19944;-62
2023/03/02 08:51:55;;;;;;;;;;;;;;;;;;5023937;28;19909;-62
2023/03/02 08:54:20;;;;;;;;;;;;;;;;;;5021894;28;19918;-62
2023/03/02 08:56:47;;;;;;;;;;;;;;;;;;5022361;28;20040;-62
2023/03/02 08:59:13;;;;;;;;;;;;;;;;;;5030128;28;19920;-62
2023/03/02 09:01:39;;;;;;;;;;;;;;;;;;5020316;28;19921;-61
2023/03/02 09:04:05;;;;;;;;;;;;;;;;;;5024808;28;19948;-62
2023/03/02 09:06:31;;;;;;;;;;;;;;;;;;5026243;28;20321;-62
2023/03/02 09:08:57;;;;;;;;;;;;;;;;;;5025928;28;20012;-62
2023/03/02 09:11:23;;;;;;;;;;;;;;;;;;5024584;28;19927;-60
2023/03/02 09:13:48;;;;;;;;;;;;;;;;;;5029235;28;19909;-61
2023/03/02 09:16:14;;;;;;;;;;;;;;;;;;5025386;28;19917;-61
2023/03/02 09:18:40;;;;;;;;;;;;;;;;;;5026073;28;19935;-62
2023/03/02 09:21:06;;;;;;;;;;;;;;;;;;5026008;28;19992;-62
2023/03/02 09:23:32;;;;;;;;;;;;;;;;;;5026462;28;20386;-63
2023/03/02 09:25:58;;;;;;;;;;;;;;;;;;5026829;28;19936;-63
2023/03/02 09:28:24;;;;;;;;;;;;;;;;;;5014147;28;20016;-64
2023/03/02 09:30:50;;;;;;;;;;;;;;;;;;5020589;28;19995;-63
2023/03/02 09:33:16;;;;;;;;;;;;;;;;;;5029259;28;20004;-64
2023/03/02 09:35:42;;;;;;;;;;;;;;;;;;5014953;28;19924;-63
2023/03/02 09:38:11;;;;;;;;;;;;;;;;;;5020718;28;20693;-62
2023/03/02 09:40:37;;;;;;;;;;;;;;;;;;5010469;28;19949;-62
2023/03/02 09:43:03;;;;;;;;;;;;;;;;;;5025474;28;20849;-61
2023/03/02 09:45:29;;;;;;;;;;;;;;;;;;5027721;28;19924;-62
2023/03/02 09:47:55;;;;;;;;;;;;;;;;;;5020282;28;19909;-63
2023/03/02 09:50:21;;;;;;;;;;;;;;;;;;5027717;28;20400;-62
2023/03/02 09:52:47;;;;;;;;;;;;;;;;;;5024786;28;19917;-61
2023/03/02 09:55:13;;;;;;;;;;;;;;;;;;5020934;28;19917;-62
2023/03/02 09:57:39;;;;;;;;;;;;;;;;;;5024704;28;19950;-61
2023/03/02 10:00:05;;;;;;;;;;;;;;;;;;5028661;28;20449;-61
2023/03/02 10:02:31;;;;;;;;;;;;;;;;;;5028992;28;19925;-61
2023/03/02 10:04:57;;;;;;;;;;;;;;;;;;5022435;28;19916;-62
2023/03/02 10:07:22;;;;;;;;;;;;;;;;;;5009497;28;19920;-62
2023/03/02 10:09:48;;;;;;;;;;;;;;;;;;5009831;28;19913;-63
2023/03/02 10:12:14;;;;;;;;;;;;;;;;;;5012541;28;19917;-64
2023/03/02 10:14:40;;;;;;;;;;;;;;;;;;5010851;28;20374;-63
2023/03/02 10:17:06;;;;;;;;;;;;;;;;;;5009586;28;19916;-62
2023/03/02 10:19:32;;;;;;;;;;;;;;;;;;5009508;28;19967;-62
2023/03/02 10:21:58;;;;;;;;;;;;;;;;;;5009405;28;19917;-62
2023/03/02 10:24:24;;;;;;;;;;;;;;;;;;5012556;28;19962;-64
2023/03/02 10:26:50;;;;;;;;;;;;;;;;;;5014699;28;20012;-63
2023/03/02 10:29:16;;;;;;;;;;;;;;;;;;5009048;28;19917;-64
2023/03/02 10:31:42;;;;;;;;;;;;;;;;;;5020750;28;20004;-63
2023/03/02 10:34:08;;;;;;;;;;;;;;;;;;5008733;28;19917;-61
2023/03/02 10:36:34;;;;;;;;;;;;;;;;;;5024998;28;19920;-63
2023/03/02 10:38:59;;;;;;;;;;;;;;;;;;5028166;28;19940;-62
2023/03/02 10:41:25;;;;;;;;;;;;;;;;;;5019654;28;19914;-63
2023/03/02 10:43:52;;;;;;;;;;;;;;;;;;5015509;28;20022;-63
2023/03/02 10:46:17;;;;;;;;;;;;;;;;;;5015349;28;19917;-64
2023/03/02 10:48:43;;;;;;;;;;;;;;;;;;5015955;28;19936;-62
2023/03/02 10:51:09;;;;;;;;;;;;;;;;;;5028111;28;19994;-63
2023/03/02 10:53:35;;;;;;;;;;;;;;;;;;5027920;28;19951;-63
2023/03/02 10:56:02;;;;;;;;;;;;;;;;;;5028207;28;19920;-63
2023/03/02 10:58:28;;;;;;;;;;;;;;;;;;5016345;28;19920;-63
2023/03/02 11:00:54;;;;;;;;;;;;;;;;;;5024933;28;19913;-63
2023/03/02 11:03:20;;;;;;;;;;;;;;;;;;5008511;28;20309;-62
2023/03/02 11:05:46;;;;;;;;;;;;;;;;;;5015749;28;19913;-63
2023/03/02 11:08:12;;;;;;;;;;;;;;;;;;5009134;28;19913;-64
2023/03/02 11:10:38;;;;;;;;;;;;;;;;;;5011431;28;20491;-62
2023/03/02 11:13:04;;;;;;;;;;;;;;;;;;5014234;28;19948;-64
2023/03/02 11:15:30;;;;;;;;;;;;;;;;;;5027812;28;19955;-63
2023/03/02 11:17:56;;;;;;;;;;;;;;;;;;5014642;28;20337;-64
2023/03/02 11:20:21;;;;;;;;;;;;;;;;;;5023472;28;19917;-63
2023/03/02 11:22:47;;;;;;;;;;;;;;;;;;5015022;28;20048;-64
2023/03/02 11:25:13;;;;;;;;;;;;;;;;;;5011450;28;19920;-64
2023/03/02 11:27:39;;;;;;;;;;;;;;;;;;5008688;28;19921;-63
2023/03/02 11:30:05;;;;;;;;;;;;;;;;;;5010808;28;19909;-63
2023/03/02 11:32:31;;;;;;;;;;;;;;;;;;5027542;28;20008;-63
2023/03/02 11:34:57;;;;;;;;;;;;;;;;;;5024168;28;20392;-61
2023/03/02 11:37:23;;;;;;;;;;;;;;;;;;5015669;28;19913;-63
2023/03/02 11:39:49;;;;;;;;;;;;;;;;;;5009184;28;19920;-63
2023/03/02 11:42:15;;;;;;;;;;;;;;;;;;5011850;28;19922;-63
2023/03/02 11:44:41;;;;;;;;;;;;;;;;;;5012171;28;19916;-63
2023/03/02 11:47:07;;;;;;;;;;;;;;;;;;5029465;28;19920;-62
2023/03/02 11:49:33;;;;;;;;;;;;;;;;;;5016036;28;20283;-62
2023/03/02 11:51:59;;;;;;;;;;;;;;;;;;5012557;28;20008;-63
2023/03/02 11:54:27;;;;;;;;;;;;;;;;;;5012505;28;19917;-63
2023/03/02 11:56:53;;;;;;;;;;;;;;;;;;5016449;28;19917;-61
2023/03/02 11:59:19;;;;;;;;;;;;;;;;;;5017963;28;19918;-60
2023/03/02 12:01:45;;;;;;;;;;;;;;;;;;5024669;28;19913;-62
2023/03/02 12:04:11;;;;;;;;;;;;;;;;;;5030462;28;19917;-62
2023/03/02 12:06:37;;;;;;;;;;;;;;;;;;5024345;28;20000;-63
2023/03/02 12:09:03;;;;;;;;;;;;;;;;;;5011502;28;19909;-63
2023/03/02 12:11:29;;;;;;;;;;;;;;;;;;5011806;28;19909;-63
2023/03/02 12:13:54;;;;;;;;;;;;;;;;;;5011650;28;19948;-61
2023/03/02 12:16:20;;;;;;;;;;;;;;;;;;5009832;28;20388;-63
2023/03/02 12:18:46;;;;;;;;;;;;;;;;;;5011570;28;19914;-63
2023/03/02 12:21:12;;;;;;;;;;;;;;;;;;5024000;28;20395;-63
2023/03/02 12:23:38;;;;;;;;;;;;;;;;;;5016897;28;19948;-60
2023/03/02 12:26:04;;;;;;;;;;;;;;;;;;5012650;28;19956;-63
2023/03/02 12:28:30;;;;;;;;;;;;;;;;;;5022834;28;19992;-65
2023/03/02 12:30:56;;;;;;;;;;;;;;;;;;5029613;28;20354;-62
2023/03/02 12:33:22;;;;;;;;;;;;;;;;;;5027046;28;19939;-65
2023/03/02 12:35:48;;;;;;;;;;;;;;;;;;5024735;28;20402;-65
2023/03/02 12:38:14;;;;;;;;;;;;;;;;;;5014464;28;19913;-66
2023/03/02 12:40:40;;;;;;;;;;;;;;;;;;5030272;28;19909;-65
2023/03/02 12:43:06;;;;;;;;;;;;;;;;;;5029678;28;19963;-64
2023/03/02 12:45:32;;;;;;;;;;;;;;;;;;5016060;28;20493;-65
2023/03/02 12:47:58;;;;;;;;;;;;;;;;;;5014901;28;20060;-66
2023/03/02 12:50:24;;;;;;;;;;;;;;;;;;5018875;28;20298;-65
2023/03/02 12:52:50;;;;;;;;;;;;;;;;;;5029518;28;19909;-65
2023/03/02 12:55:16;;;;;;;;;;;;;;;;;;5028679;28;20330;-65
2023/03/02 12:57:41;;;;;;;;;;;;;;;;;;5018174;28;19913;-65
2023/03/02 13:00:07;;;;;;;;;;;;;;;;;;5030053;28;20270;-65
2023/03/02 13:02:33;;;;;;;;;;;;;;;;;;5030092;28;19975;-65
2023/03/02 13:04:59;;;;;;;;;;;;;;;;;;5022802;28;20369;-66
2023/03/02 13:07:25;;;;;;;;;;;;;;;;;;5011307;28;19913;-66
2023/03/02 13:09:51;;;;;;;;;;;;;;;;;;5011069;28;19940;-65
2023/03/02 13:12:17;;;;;;;;;;;;;;;;;;5013277;28;19917;-64
2023/03/02 13:14:43;;;;;;;;;;;;;;;;;;5029966;28;19919;-65
2023/03/02 13:17:09;;;;;;;;;;;;;;;;;;5029742;28;19914;-64
2023/03/02 13:19:36;;;;;;;;;;;;;;;;;;5030548;28;20411;-65
2023/03/02 13:22:01;;;;;;;;;;;;;;;;;;5021193;28;20024;-65
2023/03/02 13:24:27;;;;;;;;;;;;;;;;;;5016150;28;20008;-65
2023/03/02 13:26:53;;;;;;;;;;;;;;;;;;5024304;28;19925;-65
2023/03/02 13:29:19;;;;;;;;;;;;;;;;;;5010612;28;19913;-67
2023/03/02 13:31:45;;;;;;;;;;;;;;;;;;5021354;28;19913;-67
2023/03/02 13:34:11;;;;;;;;;;;;;;;;;;5010626;28;19910;-66
2023/03/02 13:36:38;;;;;;;;;;;;;;;;;;5016178;28;20374;-66
2023/03/02 13:39:05;;;;;;;;;;;;;;;;;;5017675;28;20020;-66
2023/03/02 13:41:31;;;;;;;;;;;;;;;;;;5010332;28;19913;-65
2023/03/02 13:43:57;;;;;;;;;;;;;;;;;;5014026;28;20385;-65
2023/03/02 13:46:23;;;;;;;;;;;;;;;;;;5029113;28;19995;-66
2023/03/02 13:48:49;;;;;;;;;;;;;;;;;;5013582;28;19909;-66
2023/03/02 13:51:15;;;;;;;;;;;;;;;;;;5011112;28;20036;-64
2023/03/02 13:53:41;;;;;;;;;;;;;;;;;;5022065;28;19917;-65
2023/03/02 13:56:07;;;;;;;;;;;;;;;;;;5012737;28;19979;-65
2023/03/02 13:58:32;;;;;;;;;;;;;;;;;;5009993;28;19968;-63
2023/03/02 14:00:58;;;;;;;;;;;;;;;;;;5009772;28;19916;-65
2023/03/02 14:03:24;;;;;;;;;;;;;;;;;;5009463;28;19917;-64
2023/03/02 14:05:50;;;;;;;;;;;;;;;;;;5016236;28;19921;-65
2023/03/02 14:08:16;;;;;;;;;;;;;;;;;;5012741;28;19917;-65
2023/03/02 14:10:42;;;;;;;;;;;;;;;;;;5029305;28;19918;-65
2023/03/02 14:13:08;;;;;;;;;;;;;;;;;;5009839;28;20452;-65
2023/03/02 14:15:34;;;;;;;;;;;;;;;;;;5028313;28;19943;-65
2023/03/02 14:18:00;;;;;;;;;;;;;;;;;;5022293;28;19965;-65
2023/03/02 14:20:25;;;;;;;;;;;;;;;;;;5027856;28;19968;-65
2023/03/02 14:22:51;;;;;;;;;;;;;;;;;;5020516;28;20032;-66
2023/03/02 14:25:18;;;;;;;;;;;;;;;;;;5018597;28;19955;-66
2023/03/02 14:27:46;;;;;;;;;;;;;;;;;;5009242;28;19993;-66
2023/03/02 14:30:12;;;;;;;;;;;;;;;;;;5014427;28;20008;-66
2023/03/02 14:32:37;;;;;;;;;;;;;;;;;;5017643;28;20012;-66
2023/03/02 14:35:03;;;;;;;;;;;;;;;;;;5026929;28;19924;-65
2023/03/02 14:37:29;;;;;;;;;;;;;;;;;;5010981;28;19955;-66
2023/03/02 14:39:55;;;;;;;;;;;;;;;;;;5015592;28;20409;-66
2023/03/02 14:42:21;;;;;;;;;;;;;;;;;;5013389;28;20413;-65
2023/03/02 14:44:47;;;;;;;;;;;;;;;;;;5011143;28;19921;-66
2023/03/02 14:47:15;;;;;;;;;;;;;;;;;;5015701;28;19936;-65
2023/03/02 14:49:41;;;;;;;;;;;;;;;;;;5018624;28;19913;-66
2023/03/02 14:52:07;;;;;;;;;;;;;;;;;;5021477;28;19935;-65
2023/03/02 14:54:33;;;;;;;;;;;;;;;;;;5027916;28;19913;-66
2023/03/02 14:56:58;;;;;;;;;;;;;;;;;;5021463;28;19924;-65
2023/03/02 14:59:24;;;;;;;;;;;;;;;;;;5025223;28;19924;-65
2023/03/02 15:01:50;;;;;;;;;;;;;;;;;;5014084;28;19921;-64
2023/03/02 15:04:16;;;;;;;;;;;;;;;;;;5012634;28;20360;-66
2023/03/02 15:06:42;;;;;;;;;;;;;;;;;;5011488;28;20063;-65
2023/03/02 15:09:08;;;;;;;;;;;;;;;;;;5021120;28;19918;-64
2023/03/02 15:11:34;;;;;;;;;;;;;;;;;;5020412;28;20457;-64
2023/03/02 15:14:00;;;;;;;;;;;;;;;;;;5023727;28;19909;-64
2023/03/02 15:16:26;;;;;;;;;;;;;;;;;;5017272;28;20039;-66
2023/03/02 15:18:52;;;;;;;;;;;;;;;;;;5018449;28;19916;-65
2023/03/02 15:21:18;;;;;;;;;;;;;;;;;;5024921;28;19976;-66
2023/03/02 15:23:43;;;;;;;;;;;;;;;;;;5013210;28;19921;-66
2023/03/02 15:26:09;;;;;;;;;;;;;;;;;;5031281;28;20004;-66
2023/03/02 15:28:35;;;;;;;;;;;;;;;;;;5031184;28;19920;-66
2023/03/02 15:31:01;;;;;;;;;;;;;;;;;;5022215;28;20024;-66
2023/03/02 15:33:27;;;;;;;;;;;;;;;;;;5031065;28;19916;-66
2023/03/02 15:35:53;;;;;;;;;;;;;;;;;;5026974;28;19925;-66
2023/03/02 15:38:19;;;;;;;;;;;;;;;;;;5028365;28;20026;-66
2023/03/02 15:40:45;;;;;;;;;;;;;;;;;;5024477;28;20386;-65
2023/03/02 15:43:11;;;;;;;;;;;;;;;;;;5012410;28;20343;-66
2023/03/02 15:45:36;;;;;;;;;;;;;;;;;;5012085;28;19913;-66
2023/03/02 15:48:02;;;;;;;;;;;;;;;;;;5020979;28;19917;-65
2023/03/02 15:50:28;;;;;;;;;;;;;;;;;;5029125;28;19917;-65
2023/03/02 15:52:56;;;;;;;;;;;;;;;;;;5027418;28;19944;-66
2023/03/02 15:55:22;;;;;;;;;;;;;;;;;;5028381;28;19920;-66
2023/03/02 15:57:48;;;;;;;;;;;;;;;;;;5023705;28;19910;-66
2023/03/02 16:00:14;;;;;;;;;;;;;;;;;;5027213;28;19917;-65
2023/03/02 16:02:40;;;;;;;;;;;;;;;;;;5024985;28;19971;-65
2023/03/02 16:05:06;;;;;;;;;;;;;;;;;;5012712;28;19913;-66
2023/03/02 16:07:33;;;;;;;;;;;;;;;;;;5024493;28;20015;-63
2023/03/02 16:09:59;;;;;;;;;;;;;;;;;;5011398;28;20093;-65
2023/03/02 16:12:25;;;;;;;;;;;;;;;;;;5012460;28;20367;-65
2023/03/02 16:14:50;;;;;;;;;;;;;;;;;;5017886;28;19917;-65
2023/03/02 16:17:17;;;;;;;;;;;;;;;;;;5023464;28;19952;-66
2023/03/02 16:19:43;;;;;;;;;;;;;;;;;;5027555;28;19944;-68
2023/03/02 16:22:09;;;;;;;;;;;;;;;;;;5030480;28;19949;-67
2023/03/02 16:24:35;;;;;;;;;;;;;;;;;;5027059;28;20002;-67
2023/03/02 16:27:01;;;;;;;;;;;;;;;;;;5029656;28;19963;-66
2023/03/02 16:29:27;;;;;;;;;;;;;;;;;;5021566;28;19984;-66
2023/03/02 16:31:53;;;;;;;;;;;;;;;;;;5027544;28;19924;-66
2023/03/02 16:34:19;;;;;;;;;;;;;;;;;;5011413;28;19940;-69
2023/03/02 16:36:45;;;;;;;;;;;;;;;;;;5016077;28;19963;-67